Date,TemperatureHighF,TemperatureAvgF,TemperatureLowF,DewpointHighF,DewpointAvgF,DewpointLowF,HumidityHigh,HumidityAvg,HumidityLow,PressureMaxIn,PressureMinIn,WindSpeedMaxMPH,WindSpeedAvgMPH,GustSpeedMaxMPH,PrecipitationSumIn
2013-1-1,16,4,-10,5,-2,-13,89,78,57,30.23,30.09,6,0,6,0.00
2013-1-2,21,17,10,17,10,5,86,76,59,30.10,29.97,14,1,14,0.00
2013-1-3,25,20,9,21,16,5,92,86,80,30.18,29.98,14,1,14,0.00
2013-1-4,30,20,8,19,14,5,91,80,63,30.14,30.01,16,1,16,0.01
2013-1-5,35,24,7,32,21,5,94,88,79,30.13,29.78,9,1,15,0.03
2013-1-6,31,21,10,27,17,7,92,84,76,30.22,29.79,15,2,15,0.00
2013-1-7,36,26,7,26,20,4,92,78,62,30.20,29.94,20,2,20,0.04
2013-1-8,38,30,15,32,26,13,96,84,76,30.01,29.83,17,3,17,0.09
2013-1-9,40,33,20,32,26,17,92,76,55,30.38,29.83,20,2,20,0.00
2013-1-10,39,29,14,34,24,12,100,84,56,30.41,29.75,14,2,15,0.23
2013-1-11,45,39,34,44,38,33,99,98,94,29.74,29.47,11,2,16,0.06
2013-1-12,48,32,21,44,26,14,93,79,68,29.95,29.48,22,3,25,0.00
2013-1-13,21,16,11,15,9,5,79,75,67,30.16,29.85,12,3,17,0.00
2013-1-14,25,14,6,12,8,2,90,76,56,30.39,30.16,13,1,13,0.00
2013-1-15,29,18,7,17,11,5,100,75,51,30.35,29.98,15,1,15,0.00
2013-1-16,34,26,18,30,20,10,89,77,68,29.98,29.70,18,2,18,0.00
2013-1-17,27,20,12,20,10,5,87,66,47,30.33,29.99,6,1,15,0.00
2013-1-18,43,30,11,34,24,8,89,76,63,30.34,29.72,10,3,22,0.00
2013-1-19,45,35,14,34,27,4,87,73,47,29.92,29.55,31,3,31,0.00
2013-1-20,15,10,6,4,0,-2,72,64,51,30.27,29.92,26,3,26,0.00
2013-1-21,10,2,-2,2,-6,-10,80,68,55,30.25,30.08,19,3,20,0.00
2013-1-22,8,1,-6,-1,-6,-11,80,70,58,30.33,30.24,15,1,15,0.00
2013-1-23,18,11,3,13,5,-5,92,74,63,30.39,30.02,21,2,21,0.00
2013-1-24,16,6,-1,9,-1,-7,77,70,64,30.61,30.26,9,1,12,0.00
2013-1-25,26,19,12,18,12,5,88,76,62,30.26,29.85,18,2,18,0.00
2013-1-26,23,16,4,14,7,0,87,69,50,30.34,30.16,11,1,11,0.00
2013-1-27,33,28,22,32,23,13,97,83,68,30.24,29.74,18,4,18,0.00
2013-1-28,39,34,33,35,33,31,98,94,84,29.84,29.65,12,1,12,0.20
2013-1-29,53,41,34,53,41,33,100,97,94,29.68,29.39,12,1,12,1.86
2013-1-30,34,26,14,33,24,11,97,95,87,29.57,29.26,19,3,19,0.05
2013-1-31,14,8,-1,11,4,-4,90,84,76,30.13,29.57,18,3,18,0.00
2013-2-1,5,0,-8,2,-5,-12,88,79,67,30.29,30.06,12,2,12,0.00
2013-2-2,12,7,0,5,3,-3,90,83,71,30.07,29.95,11,1,11,0.00
2013-2-3,19,13,6,13,8,3,91,82,66,29.97,29.88,15,1,15,0.00
2013-2-4,18,13,6,13,9,3,92,84,69,29.93,29.85,12,1,12,0.00
2013-2-5,28,20,7,25,16,4,92,86,77,30.04,29.71,13,1,13,0.01
2013-2-6,33,19,-1,30,15,-4,100,85,76,30.14,29.95,14,2,14,0.00
2013-2-7,33,31,22,32,29,21,96,95,89,30.03,29.83,16,2,16,0.00
2013-2-8,26,19,4,21,15,2,93,85,73,30.33,30.02,18,2,18,0.00
2013-2-9,22,14,3,20,13,0,95,93,89,30.33,30.22,13,2,14,0.00
2013-2-10,42,33,21,41,32,19,99,95,88,29.97,29.27,11,5,23,0.10
2013-2-11,36,29,23,33,25,18,92,85,78,29.93,29.29,9,4,31,0.01
2013-2-12,31,24,20,23,19,16,93,81,69,30.01,29.78,5,2,17,0.00
2013-2-13,38,29,15,30,24,13,95,84,64,29.78,29.56,5,1,11,0.00
2013-2-14,35,33,27,33,27,21,94,80,63,29.93,29.47,27,2,27,0.04
2013-2-15,27,19,10,22,9,2,81,65,48,30.16,29.93,17,2,17,0.00
2013-2-16,17,9,2,7,2,-2,94,72,52,30.15,30.09,11,1,12,0.00
2013-2-17,27,14,-2,21,7,-6,88,74,59,30.15,29.81,19,3,21,0.00
2013-2-18,43,32,20,35,27,16,95,81,71,29.81,29.39,20,4,20,0.07
2013-2-19,20,12,7,17,6,-1,90,79,66,30.17,29.51,16,5,25,0.00
2013-2-20,23,12,4,11,5,-2,86,71,59,30.33,30.16,14,2,14,0.01
2013-2-21,25,17,8,23,14,5,95,87,76,30.37,29.94,19,3,19,0.00
2013-2-22,29,26,23,26,24,21,95,91,87,29.94,29.70,17,1,17,0.08
2013-2-23,29,25,20,22,20,16,89,82,71,29.87,29.76,13,1,13,0.03
2013-2-24,38,23,8,23,17,6,93,78,55,30.06,29.87,10,1,11,0.01
2013-2-25,38,27,14,28,21,12,92,81,64,30.09,29.93,10,1,10,0.00
2013-2-26,33,30,28,28,26,24,97,86,76,29.93,29.58,27,5,27,0.00
2013-2-27,32,30,27,31,29,26,100,96,93,29.73,29.56,21,5,21,0.16
2013-2-28,33,31,29,30,27,23,96,86,76,30.02,29.73,15,4,15,0.04
2013-3-2,28,14,0,14,7,-3,92,74,49,30.23,30.11,6,1,13,0.00
2013-3-3,28,14,-2,14,6,-5,95,71,47,30.12,30.02,2,0,6,0.01
2013-3-4,30,22,9,25,17,5,86,80,69,30.05,29.93,7,2,15,0.00
2013-3-5,28,27,24,27,25,23,96,93,86,30.04,29.81,7,3,15,0.01
2013-3-6,31,27,22,25,23,18,93,85,77,30.25,30.05,7,2,14,0.01
2013-3-7,35,21,5,22,15,2,93,78,57,30.35,30.25,3,0,5,0.06
2013-3-8,36,24,9,27,19,7,94,82,70,30.38,30.24,14,3,18,0.01
2013-3-9,38,35,31,36,31,25,96,86,77,30.16,29.68,17,4,24,0.43
2013-3-10,39,36,33,38,36,32,98,97,94,29.70,29.54,17,2,21,0.78
2013-3-11,33,32,29,32,30,25,97,94,85,29.70,29.48,15,2,15,0.02
2013-3-12,32,27,23,26,23,19,94,85,74,29.95,29.69,18,2,18,0.03
2013-3-13,32,24,17,20,12,6,87,64,33,30.24,29.95,14,3,18,0.01
2013-3-14,34,24,12,28,20,9,93,83,65,30.24,29.97,13,1,13,0.03
2013-3-15,34,30,25,32,28,24,96,93,87,29.98,29.71,16,1,16,0.19
2013-3-16,30,26,21,26,21,18,93,83,70,30.08,29.72,13,2,13,0.00
2013-3-17,31,23,16,21,15,8,82,71,63,30.19,29.91,17,3,17,0.00
2013-3-18,32,25,16,30,22,11,95,87,74,29.91,29.50,20,3,23,0.11
2013-3-19,30,19,11,12,9,6,83,66,42,30.00,29.67,22,4,24,0.00
2013-3-20,20,14,8,8,4,-1,71,64,55,30.04,29.97,17,4,18,0.00
2013-3-21,29,17,6,12,8,1,81,66,47,30.02,29.94,4,1,11,0.01
2013-3-22,36,22,7,18,13,4,92,69,44,30.00,29.94,9,0,9,0.00
2013-3-23,36,26,17,21,18,14,90,73,52,30.07,29.98,11,0,11,0.00
2013-3-24,31,29,28,28,24,21,92,83,73,29.99,29.73,7,2,16,0.03
2013-3-25,33,30,25,25,22,18,81,73,66,30.02,29.77,9,4,18,0.00
2013-3-26,40,34,29,27,24,22,77,67,56,30.18,30.02,6,2,15,0.00
2013-3-27,43,35,26,27,23,20,82,64,41,30.24,30.18,4,0,11,0.00
2013-3-28,46,34,21,27,22,18,92,66,35,30.27,30.20,7,0,7,0.00
2013-3-29,50,38,24,30,24,19,91,62,33,30.24,30.11,4,0,4,0.00
2013-3-30,52,44,36,43,34,26,94,70,60,30.12,29.72,18,2,18,0.01
2013-3-31,46,40,32,42,34,20,95,80,56,29.84,29.64,14,2,14,0.00
2013-4-1,36,31,25,20,16,12,69,55,40,30.12,29.84,19,4,19,0.00
2013-4-2,41,31,22,21,17,12,82,58,35,30.25,30.12,12,1,15,0.00
2013-4-3,44,34,20,22,18,11,86,55,26,30.37,30.17,12,1,12,0.00
2013-4-4,59,44,32,37,28,21,73,55,39,30.17,29.85,15,2,15,0.00
2013-4-5,48,40,28,31,26,21,80,58,35,30.15,29.96,15,2,15,0.00
2013-4-6,61,48,36,51,35,20,91,63,45,30.01,29.43,25,5,25,0.05
2013-4-7,55,45,37,45,37,33,87,73,50,29.85,29.48,19,2,19,0.01
2013-4-8,63,48,39,53,43,34,96,83,59,29.89,29.51,14,2,14,0.55
2013-4-9,44,40,37,42,38,35,97,96,92,29.92,29.76,18,4,20,1.13
2013-4-10,37,34,33,36,33,32,96,95,93,29.98,29.82,21,4,21,0.83
2013-4-11,39,37,36,38,36,34,97,96,93,29.81,29.48,18,5,31,0.39
2013-4-12,42,36,35,38,35,34,98,96,82,29.54,29.43,13,1,15,0.03
2013-4-13,39,35,31,31,29,26,89,78,64,29.91,29.70,7,2,17,0.00
2013-4-14,52,40,31,46,36,28,95,86,70,29.91,29.46,14,5,24,0.17
2013-4-15,60,48,40,50,42,35,98,83,44,29.87,29.49,8,2,26,0.49
2013-4-16,53,43,33,37,33,30,89,69,43,30.19,29.86,15,2,15,0.00
2013-4-17,44,41,38,42,38,34,97,88,71,30.20,29.75,22,3,23,1.21
2013-4-18,59,46,37,59,45,34,99,95,85,29.77,29.20,23,3,24,0.54
2013-4-19,40,36,32,34,30,23,92,79,63,29.84,29.27,25,4,25,0.05
2013-4-20,45,35,26,24,20,14,85,58,29,30.29,29.84,13,2,15,0.00
2013-4-21,53,43,32,39,30,22,74,62,46,30.39,30.13,23,6,24,0.00
2013-4-22,66,55,45,43,39,36,73,57,37,30.14,29.86,21,4,21,0.00
2013-4-23,58,44,38,47,36,28,89,75,57,29.92,29.76,17,3,20,0.01
2013-4-24,53,43,33,34,27,22,80,55,30,29.96,29.89,17,2,17,0.00
2013-4-25,52,44,38,38,33,27,88,67,42,30.18,29.87,15,2,15,0.06
2013-4-26,70,55,35,48,39,26,77,54,40,30.17,30.01,28,5,28,0.00
2013-4-27,65,56,44,51,46,41,91,72,52,30.11,29.90,14,2,14,0.00
2013-4-28,72,56,38,48,44,37,96,67,38,29.90,29.66,15,1,15,0.00
2013-4-29,70,60,52,58,52,47,89,75,55,29.73,29.56,17,2,17,0.05
2013-4-30,86,74,60,62,54,46,92,56,27,29.73,29.52,27,5,27,0.09
2013-5-1,78,65,50,56,50,42,78,59,43,30.10,29.73,19,2,19,0.00
2013-5-2,53,45,37,42,38,34,93,77,61,30.21,30.09,19,5,20,0.06
2013-5-3,47,40,35,46,39,33,97,94,90,30.14,29.90,16,3,16,0.67
2013-5-4,70,56,47,59,50,46,98,82,49,29.95,29.86,13,1,13,0.24
2013-5-5,73,59,44,54,48,43,97,69,40,29.95,29.88,14,1,14,0.00
2013-5-6,74,60,43,50,45,40,94,61,29,29.97,29.87,13,1,13,0.00
2013-5-7,77,63,49,50,44,34,91,56,22,29.95,29.85,13,0,13,0.00
2013-5-8,79,65,47,53,47,41,91,58,27,29.91,29.82,11,0,11,0.00
2013-5-9,64,58,50,60,55,48,96,88,75,29.83,29.73,17,1,18,0.92
2013-5-10,53,47,43,49,44,41,96,91,83,29.90,29.78,16,2,16,0.26
2013-5-11,54,48,41,50,37,26,97,69,39,29.95,29.69,25,3,28,0.01
2013-5-12,55,45,34,31,28,22,80,53,31,30.04,29.95,19,2,20,0.00
2013-5-13,65,51,31,38,32,26,93,54,24,30.07,29.76,14,1,14,0.00
2013-5-14,69,59,56,54,44,37,64,56,46,29.76,29.59,15,3,15,0.00
2013-5-15,78,69,54,60,47,41,78,47,29,29.75,29.43,7,1,18,0.00
2013-5-16,84,67,47,57,47,40,92,55,25,29.83,29.73,6,1,14,0.00
2013-5-17,64,58,49,55,48,37,93,71,43,29.97,29.82,7,2,15,0.15
2013-5-18,79,67,54,66,58,48,85,74,55,29.94,29.77,12,1,13,0.00
2013-5-19,86,73,64,67,63,56,89,71,49,29.80,29.47,31,4,31,0.02
2013-5-20,81,71,62,64,62,58,96,73,51,29.66,29.45,31,3,36,0.48
2013-5-21,76,68,57,64,59,55,93,74,58,29.56,29.45,25,2,25,0.00
2013-5-22,70,61,54,63,58,53,97,89,72,29.66,29.49,13,0,13,0.13
2013-5-23,62,54,43,54,46,34,95,77,37,30.20,29.66,19,2,19,0.06
2013-5-24,64,51,36,45,40,34,96,69,37,30.35,30.17,12,1,12,0.00
2013-5-25,59,53,45,44,41,34,89,66,40,30.28,30.17,14,1,14,0.07
2013-5-26,66,55,45,53,45,37,86,70,44,30.20,30.02,13,2,14,0.05
2013-5-27,56,54,51,54,51,44,98,90,69,30.02,29.76,19,3,19,0.20
2013-5-28,72,61,52,68,60,51,98,94,83,29.77,29.57,10,1,10,0.48
2013-5-29,82,71,62,70,65,61,99,83,64,29.77,29.63,19,2,20,0.27
2013-5-30,82,72,62,73,66,61,98,84,61,29.74,29.53,27,5,27,0.17
2013-5-31,77,69,63,67,63,61,94,83,62,29.64,29.53,19,4,19,0.01
2013-6-1,78,69,61,69,62,57,98,81,50,29.59,29.48,18,2,18,0.53
2013-6-2,63,54,46,58,46,42,94,75,53,29.93,29.59,20,3,20,0.00
2013-6-3,69,56,40,51,44,39,97,67,35,29.99,29.89,11,0,11,0.00
2013-6-4,68,60,50,54,50,46,91,70,48,30.05,29.94,13,1,14,0.21
2013-6-5,65,57,50,60,54,48,95,90,79,30.01,29.81,14,1,14,0.21
2013-6-6,59,56,52,56,53,51,96,92,86,29.85,29.80,10,1,10,0.16
2013-6-7,70,60,53,57,52,49,94,78,51,29.89,29.79,11,1,11,0.00
2013-6-8,72,62,50,54,50,45,96,69,42,29.87,29.81,11,1,11,0.00
2013-6-9,78,66,58,69,58,48,96,75,54,29.87,29.66,20,2,20,0.41
2013-6-10,80,69,59,68,63,58,98,82,57,29.74,29.64,11,0,11,0.00
2013-6-11,83,71,56,70,64,55,98,79,55,29.79,29.65,12,1,13,0.00
2013-6-12,78,71,62,71,66,61,96,87,71,29.77,29.47,14,2,14,0.67
2013-6-13,62,60,60,61,58,57,95,92,89,29.70,29.61,11,1,12,0.00
2013-6-14,77,67,54,61,57,53,95,72,47,30.03,29.85,6,1,13,0.00
2013-6-15,82,70,60,70,64,55,96,81,62,29.92,29.67,16,1,17,0.52
2013-6-16,84,74,60,69,62,53,97,71,36,29.78,29.71,11,1,11,0.03
2013-6-17,85,72,58,66,59,55,93,68,41,29.82,29.73,13,1,13,0.00
2013-6-18,72,63,53,59,54,49,87,72,50,29.98,29.81,14,2,14,0.00
2013-6-19,78,64,47,58,52,45,95,66,37,30.03,29.92,10,1,10,0.00
2013-6-20,86,74,58,65,58,48,76,59,39,30.00,29.88,14,2,15,0.00
2013-6-21,78,71,66,69,66,62,96,83,68,29.97,29.70,20,1,24,1.03
2013-6-22,83,72,66,72,68,65,96,87,66,29.98,29.77,17,2,20,1.38
2013-6-23,84,74,63,76,68,62,98,85,67,29.94,29.70,17,2,17,0.29
2013-6-24,81,72,68,71,67,65,96,86,67,29.88,29.69,15,1,17,0.01
2013-6-25,82,72,65,75,69,64,97,91,76,29.82,29.65,13,1,13,1.20
2013-6-26,84,74,66,73,70,65,98,88,65,29.68,29.55,17,1,17,1.75
2013-6-27,87,77,67,74,68,61,98,77,47,29.66,29.56,15,1,15,0.00
2013-6-28,78,69,62,68,63,59,96,82,57,29.61,29.51,15,1,17,0.49
2013-6-29,72,66,63,65,62,58,97,88,72,29.72,29.51,15,2,16,0.10
2013-6-30,77,66,57,63,55,51,92,70,44,29.94,29.72,10,1,13,0.00
2013-7-1,78,65,52,59,54,50,97,72,38,30.01,29.93,15,1,15,0.00
2013-7-2,74,64,53,58,54,45,97,72,37,30.01,29.93,12,0,13,0.00
2013-7-3,70,62,52,64,57,50,96,86,73,29.98,29.90,5,0,6,0.00
2013-7-4,82,70,56,65,60,54,98,74,44,29.95,29.86,15,1,15,0.01
2013-7-5,84,74,62,69,64,60,95,74,50,29.92,29.84,15,2,15,0.00
2013-7-6,85,74,63,69,65,60,92,74,53,29.90,29.80,14,1,14,0.00
2013-7-7,88,77,67,74,69,64,95,78,57,29.84,29.75,11,1,11,0.00
2013-7-8,88,79,71,78,74,69,96,83,64,29.83,29.75,12,0,12,0.21
2013-7-9,86,77,70,76,73,68,97,88,72,29.84,29.67,18,1,18,0.04
2013-7-10,78,72,60,73,63,57,96,76,51,29.91,29.71,21,1,21,0.05
2013-7-11,80,68,55,63,58,53,98,74,44,30.00,29.91,8,0,9,0.01
2013-7-12,60,58,56,58,56,54,95,94,93,29.99,29.97,1,0,1,0.00
2013-7-13,83,72,60,66,61,57,89,70,46,30.03,29.94,6,1,13,0.00
2013-7-14,86,75,60,70,65,58,95,75,53,30.08,30.01,12,1,13,0.00
2013-7-15,90,79,66,76,71,64,96,78,54,30.14,30.05,9,0,9,0.00
2013-7-16,91,82,71,78,74,70,97,79,59,30.14,30.08,12,0,12,0.00
2013-7-17,94,83,72,77,74,70,96,77,52,30.15,30.01,15,0,15,0.00
2013-7-18,93,83,71,77,73,70,97,74,53,30.03,29.74,14,1,14,0.00
2013-7-19,91,82,70,76,70,63,82,69,51,29.74,29.59,10,1,16,0.00
2013-7-20,85,73,60,68,64,59,95,76,51,29.83,29.70,13,1,13,0.00
2013-7-21,83,68,61,70,63,58,95,83,62,29.84,29.74,21,1,21,0.83
2013-7-22,86,72,62,73,66,60,98,84,62,29.76,29.53,25,1,25,0.60
2013-7-23,74,67,56,64,58,54,96,74,54,29.88,29.59,16,2,16,0.00
2013-7-24,74,63,52,58,54,50,98,76,47,29.97,29.88,11,0,11,0.00
2013-7-25,79,67,54,68,60,52,96,82,62,29.95,29.83,14,1,16,0.15
2013-7-26,78,67,60,69,62,56,98,85,51,29.84,29.71,14,1,14,0.09
2013-7-27,63,56,52,57,50,45,93,80,62,29.85,29.76,15,1,15,0.04
2013-7-28,68,59,52,56,53,50,95,82,64,29.91,29.74,14,1,16,0.06
2013-7-29,76,64,52,61,57,50,96,80,58,30.04,29.91,10,0,10,0.00
2013-7-30,72,64,55,64,60,53,97,87,70,30.05,29.95,11,1,11,0.00
2013-7-31,80,68,60,69,64,59,96,87,65,29.96,29.83,11,0,14,0.02
2013-8-1,78,67,58,62,59,54,98,78,47,29.89,29.78,15,1,16,0.01
2013-8-2,80,70,60,68,62,55,96,77,49,29.85,29.69,12,0,14,0.15
2013-8-3,77,65,52,61,55,50,97,73,42,30.03,29.84,13,0,13,0.00
2013-8-4,75,63,50,62,56,49,97,79,48,30.11,29.98,7,0,7,0.00
2013-8-5,72,65,59,65,61,56,96,88,74,29.98,29.72,16,1,16,0.10
2013-8-6,84,74,66,72,68,64,98,85,62,29.75,29.64,11,0,11,0.00
2013-8-7,79,72,60,72,66,59,97,82,65,29.85,29.60,16,1,16,0.00
2013-8-8,79,68,58,66,62,56,96,81,55,29.92,29.84,10,0,11,0.00
2013-8-9,80,69,58,68,61,55,94,77,51,29.95,29.85,11,0,11,0.00
2013-8-10,76,64,52,60,56,50,97,77,51,30.04,29.95,9,0,9,0.00
2013-8-11,76,64,53,68,61,52,97,90,73,30.03,29.90,9,0,10,0.19
2013-8-12,81,70,60,69,64,57,98,84,58,29.90,29.78,13,0,13,0.00
2013-8-13,71,62,53,59,52,48,93,72,47,30.06,29.86,17,1,17,0.00
2013-8-14,74,60,45,57,51,44,97,76,45,30.11,30.00,9,0,10,0.00
2013-8-15,76,63,52,61,56,51,97,80,44,30.04,29.97,12,0,12,0.00
2013-8-16,81,66,51,62,56,50,97,74,37,30.07,30.01,7,0,10,0.00
2013-8-17,80,66,52,62,55,50,97,73,41,30.13,30.03,10,0,12,0.00
2013-8-18,80,67,52,63,56,51,97,73,41,30.10,29.96,12,0,12,0.00
2013-8-19,82,68,54,67,61,53,97,78,50,29.98,29.89,12,0,13,0.00
2013-8-20,86,74,61,70,65,59,96,76,50,29.94,29.85,14,1,14,0.00
2013-8-21,89,79,70,73,69,65,88,73,54,29.88,29.77,19,1,19,0.00
2013-8-22,78,71,65,71,68,63,97,91,75,30.01,29.83,17,0,18,1.27
2013-8-23,82,70,56,66,60,56,98,75,48,30.06,29.99,10,1,11,0.01
2013-8-24,83,71,56,71,63,52,92,75,64,30.12,30.01,14,1,14,0.00
2013-8-25,89,78,70,75,69,66,87,75,57,30.06,29.94,15,1,15,0.00
2013-8-26,91,78,72,77,71,66,88,78,62,29.98,29.81,12,1,12,0.00
2013-8-27,94,82,73,77,74,70,91,76,55,29.82,29.65,15,1,15,0.00
2013-8-28,83,75,68,74,71,66,96,87,69,29.92,29.69,10,0,10,0.00
2013-8-29,86,75,62,72,68,61,99,80,51,29.95,29.81,12,1,12,0.00
2013-8-30,92,80,70,79,73,68,96,81,64,29.82,29.62,12,1,12,0.00
2013-8-31,81,72,64,70,66,62,96,83,66,29.75,29.65,7,0,11,0.00
2013-9-1,84,71,62,73,65,58,98,84,51,29.73,29.59,12,0,12,0.00
2013-9-2,70,62,52,60,57,50,95,82,64,29.91,29.72,12,1,12,0.00
2013-9-3,74,60,46,58,53,45,98,80,50,30.00,29.89,11,0,11,0.01
2013-9-4,84,67,49,68,59,48,97,80,54,30.00,29.92,11,0,11,0.00
2013-9-5,76,68,59,64,61,52,95,79,62,30.13,29.98,13,2,13,0.00
2013-9-6,87,71,56,68,60,49,82,69,51,30.10,29.83,12,1,12,0.00
2013-9-7,89,77,67,74,68,62,94,75,57,29.84,29.73,13,0,13,0.00
2013-9-8,73,68,63,69,64,59,92,87,83,29.93,29.82,16,2,17,0.00
2013-9-9,93,77,67,77,70,64,95,80,56,29.83,29.61,13,1,13,0.00
2013-9-10,94,83,74,69,66,63,76,57,37,29.81,29.67,19,1,20,0.00
2013-9-11,82,72,65,70,66,63,96,84,63,29.95,29.80,9,0,12,0.23
2013-9-12,74,64,57,64,56,48,98,75,51,30.03,29.85,18,2,20,0.01
2013-9-13,66,54,44,48,44,39,94,69,40,30.13,30.03,12,1,14,0.00
2013-9-14,72,57,40,51,46,39,100,70,41,30.07,29.86,15,1,15,0.00
2013-9-15,62,57,54,58,54,48,96,90,67,30.12,29.85,13,1,14,0.66
2013-9-16,64,54,44,54,46,41,93,76,52,30.30,30.12,11,1,11,0.00
2013-9-17,69,56,40,57,50,39,97,83,61,30.24,29.95,14,2,15,0.01
2013-9-18,76,68,60,68,62,56,93,84,69,29.95,29.74,15,2,16,0.03
2013-9-19,86,72,67,75,69,65,97,90,62,29.75,29.56,16,1,17,0.92
2013-9-20,68,64,56,66,60,54,97,88,70,29.73,29.58,12,0,14,0.00
2013-9-21,62,54,46,54,49,45,96,84,61,29.85,29.73,16,1,16,0.01
2013-9-22,64,53,46,50,47,45,95,81,52,29.98,29.84,7,0,7,0.00
2013-9-23,68,57,46,55,50,45,94,79,59,30.00,29.90,11,1,11,0.00
2013-9-24,71,58,45,56,51,44,97,78,48,29.93,29.82,12,1,12,0.01
2013-9-25,71,57,44,57,51,43,97,81,54,29.89,29.82,13,0,13,0.00
2013-9-26,76,60,44,59,52,42,98,78,44,29.96,29.87,14,1,14,0.01
2013-9-27,80,65,49,58,53,48,97,69,36,30.02,29.89,18,2,18,0.01
2013-9-28,81,65,54,66,57,51,96,76,53,29.90,29.69,25,3,25,0.31
2013-9-29,72,57,47,55,49,43,98,78,38,29.96,29.85,8,0,8,0.01
2013-9-30,72,60,47,52,48,43,95,68,38,29.88,29.69,16,2,19,0.00
2013-10-1,80,66,55,64,58,51,94,78,54,29.85,29.69,17,1,17,0.00
2013-10-2,76,61,45,57,48,40,97,67,27,30.00,29.83,7,0,9,0.01
2013-10-3,75,66,56,69,61,44,97,86,55,29.83,29.68,14,1,14,0.01
2013-10-4,68,65,62,67,64,61,98,97,94,29.86,29.72,12,1,12,0.42
2013-10-5,74,65,55,71,64,48,98,95,77,29.80,29.60,14,1,14,0.12
2013-10-6,58,50,42,48,44,41,97,80,56,29.66,29.57,12,0,12,0.03
2013-10-7,68,53,42,50,46,41,96,80,47,29.97,29.62,13,1,13,0.00
2013-10-8,75,57,40,54,46,39,97,71,35,30.03,29.95,17,1,19,0.01
2013-10-9,73,58,46,54,47,44,94,71,38,30.09,29.98,15,1,15,0.00
2013-10-10,73,57,42,55,48,40,97,75,43,30.05,29.90,13,1,14,0.00
2013-10-11,55,52,50,51,49,48,94,91,87,29.91,29.90,0,0,1,0.00
2013-10-12,70,61,42,61,51,39,90,71,43,30.05,29.74,5,2,18,0.00
2013-10-13,62,47,35,45,38,34,96,73,36,30.32,30.05,6,1,14,0.00
2013-10-14,62,48,32,46,40,31,97,77,53,30.33,29.99,16,2,16,0.00
2013-10-15,60,54,50,59,49,44,97,86,75,29.99,29.61,16,2,16,0.30
2013-10-16,53,50,47,51,47,45,96,92,84,29.83,29.66,10,0,10,0.04
2013-10-17,55,46,37,46,43,36,97,88,60,29.82,29.69,10,0,10,0.01
2013-10-18,47,43,36,44,39,35,100,87,72,29.85,29.69,17,0,17,0.00
2013-10-19,54,41,29,43,37,28,100,86,50,29.82,29.61,14,0,14,0.03
2013-10-20,50,42,30,47,39,29,97,91,75,29.75,29.59,14,1,15,0.08
2013-10-21,48,39,29,44,31,24,90,75,57,29.87,29.64,20,1,20,0.01
2013-10-22,46,35,26,33,28,23,90,77,57,29.89,29.81,7,0,8,0.01
2013-10-23,42,34,25,33,29,23,100,81,59,29.93,29.86,10,0,11,0.00
2013-10-24,44,36,29,31,27,25,88,72,50,30.21,29.93,16,1,16,0.00
2013-10-25,52,40,24,34,28,22,93,66,44,30.27,29.80,21,2,21,0.00
2013-10-26,52,45,35,40,32,28,83,60,45,29.97,29.68,23,2,23,0.00
2013-10-27,55,40,26,35,30,24,95,69,39,29.98,29.79,16,1,20,0.00
2013-10-28,43,40,33,34,33,29,89,74,65,30.31,29.93,13,2,14,0.00
2013-10-29,51,44,37,43,37,30,86,78,71,30.31,30.01,11,1,11,0.00
2013-10-30,56,51,46,55,49,42,100,94,82,30.01,29.61,15,1,16,0.03
2013-10-31,61,55,43,61,54,41,98,96,91,29.61,29.18,10,1,12,0.58
2013-11-1,47,43,37,45,41,36,96,92,87,29.66,29.24,13,1,13,0.02
2013-11-2,47,40,31,38,36,29,100,87,68,30.06,29.65,12,1,12,0.01
2013-11-3,51,39,26,40,33,25,97,80,54,30.19,30.06,19,2,19,0.01
2013-11-4,52,48,42,47,41,37,91,76,68,30.08,29.91,25,4,25,0.00
2013-11-5,54,50,45,52,48,43,97,93,83,30.13,29.71,21,2,21,0.59
2013-11-6,56,42,29,55,38,25,100,86,61,30.09,29.59,21,2,21,0.34
2013-11-7,42,33,27,34,29,24,93,84,70,30.16,30.08,12,1,12,0.00
2013-11-8,48,37,23,36,30,22,100,78,62,30.20,29.67,27,4,27,0.01
2013-11-9,52,47,38,42,37,27,81,69,55,30.00,29.64,25,3,25,0.00
2013-11-10,49,42,36,34,31,28,76,65,48,30.23,30.00,15,2,15,0.00
2013-11-11,45,33,20,35,26,15,95,78,65,30.51,29.94,18,2,19,0.07
2013-11-12,31,23,17,19,16,12,84,74,57,30.66,30.48,12,1,12,0.01
2013-11-13,42,31,19,21,17,14,82,58,40,30.49,29.96,19,3,19,0.01
2013-11-14,48,40,33,34,26,19,74,58,50,29.96,29.77,13,2,19,0.00
2013-11-15,56,42,31,41,34,27,88,72,55,29.82,29.75,8,1,13,0.00
2013-11-16,58,49,37,56,47,34,97,93,86,29.76,29.33,25,6,26,0.22
2013-11-17,59,50,39,56,48,34,100,91,80,29.59,29.05,26,3,26,1.08
2013-11-18,40,34,25,33,27,22,87,76,60,30.18,29.59,26,3,26,0.00
2013-11-19,41,31,20,30,25,18,94,78,58,30.27,30.12,14,2,15,0.00
2013-11-20,40,36,33,36,32,30,95,83,67,30.13,29.98,25,4,25,0.07
2013-11-21,42,40,37,40,38,36,96,93,88,30.17,29.99,13,1,13,0.00
2013-11-22,38,31,24,36,25,16,95,80,57,30.41,30.16,15,2,15,0.04
2013-11-23,24,18,10,18,9,4,79,66,51,30.68,30.34,23,4,24,0.00
2013-11-24,28,18,7,12,7,4,89,62,38,30.64,30.16,19,2,19,0.00
2013-11-25,31,27,22,28,22,10,92,80,51,30.16,29.93,16,2,19,0.01
2013-11-26,33,26,13,28,18,4,87,71,55,30.17,29.92,20,2,22,0.00
2013-11-27,27,19,11,15,11,4,84,71,54,30.23,30.12,12,2,13,0.00
2013-11-28,30,25,17,19,16,13,84,68,60,30.43,30.06,11,1,11,0.00
2013-11-29,31,22,8,23,16,6,91,79,63,30.54,30.24,13,2,14,0.00
2013-11-30,44,34,28,32,28,23,92,78,62,30.24,29.93,10,1,14,0.01
2013-12-1,40,33,28,31,28,25,93,81,62,30.06,29.88,11,0,11,0.00
2013-12-2,40,32,22,35,29,20,96,89,74,29.88,29.62,16,2,17,0.06
2013-12-3,39,37,35,38,36,33,98,97,95,29.65,29.56,13,2,13,0.10
2013-12-4,49,40,33,49,39,30,98,97,87,29.65,29.33,17,2,17,0.05
2013-12-5,33,21,13,30,15,8,88,77,66,30.22,29.55,19,3,19,0.00
2013-12-6,17,11,7,8,5,2,92,76,61,30.51,30.20,11,2,14,0.00
2013-12-7,16,8,2,4,2,-2,94,76,54,30.65,30.51,12,1,12,0.00
2013-12-8,19,15,8,18,10,3,100,83,67,30.55,29.89,11,1,13,0.00
2013-12-9,17,9,-5,15,5,-9,92,81,65,30.14,29.86,17,1,19,0.01
2013-12-10,19,9,-6,12,3,-10,86,76,63,30.18,29.86,19,2,19,0.00
2013-12-11,15,8,-4,12,2,-11,90,75,56,30.49,30.17,15,1,17,0.00
2013-12-12,20,11,-4,13,4,-9,82,74,62,30.45,30.10,15,1,15,0.00
2013-12-13,24,18,12,19,14,9,89,83,75,30.14,30.06,14,2,14,0.00
2013-12-14,24,21,18,22,18,14,94,88,83,30.11,29.87,16,2,16,0.00
2013-12-15,19,11,6,15,4,-4,84,72,57,30.08,29.87,15,2,16,0.00
2013-12-16,16,8,-4,14,3,-8,93,81,64,30.10,29.94,10,0,10,0.00
2013-12-17,36,25,16,28,20,12,94,81,59,30.00,29.82,19,2,19,0.17
2013-12-18,35,25,13,29,18,8,87,74,54,30.03,29.67,18,2,19,0.00
2013-12-19,33,26,20,29,23,18,95,88,78,29.88,29.68,16,2,16,0.00
2013-12-20,25,22,21,22,21,20,96,93,91,29.83,29.74,17,2,17,0.00
2013-12-21,27,25,23,26,24,22,96,96,94,29.81,29.65,15,1,15,0.00
2013-12-22,27,24,20,26,23,18,96,94,93,30.05,29.64,16,1,16,0.01
2013-12-23,23,10,-2,21,6,-6,95,87,80,30.40,30.04,11,1,11,0.00
2013-12-24,13,2,-13,8,-2,-17,89,85,79,30.51,30.21,12,2,12,0.00
2013-12-25,23,20,10,22,17,7,98,91,88,30.21,29.99,13,1,13,0.00
2013-12-26,28,21,10,24,18,7,92,88,83,30.14,30.02,12,1,12,0.00
2013-12-27,38,27,8,32,23,6,94,86,76,30.17,29.92,20,1,20,0.01
2013-12-28,44,36,20,34,30,18,95,80,67,29.95,29.64,13,1,15,0.20
2013-12-29,40,20,-3,32,14,-10,91,80,72,30.20,29.61,22,4,22,0.00
2013-12-30,5,-3,-14,-1,-9,-18,85,76,56,30.29,30.15,6,0,6,0.00
2013-12-31,8,2,-7,4,-1,-10,87,84,74,30.30,30.14,6,0,7,0.00
2014-1-1,10,6,1,3,-1,-6,76,72,68,30.34,30.25,14,2,14,0.00
2014-1-2,12,6,-11,5,-1,-14,84,73,60,30.40,30.21,15,2,16,0.00